createdAt,value
2022-12-03T00:01:15.770Z,43.30
2022-12-03T00:06:18.233Z,43.76
2022-12-03T00:11:20.096Z,43.50
2022-12-03T00:16:21.944Z,43.83
2022-12-03T00:21:24.854Z,43.74
2022-12-03T00:26:26.995Z,43.79
2022-12-03T00:31:28.968Z,44.08
2022-12-03T00:36:33.302Z,43.94
2022-12-03T00:41:35.240Z,43.89
2022-12-03T00:46:37.161Z,44.20
2022-12-03T00:51:39.432Z,44.45
2022-12-03T00:56:41.438Z,44.35
2022-12-03T01:01:43.596Z,44.13
2022-12-03T01:06:45.625Z,44.08
2022-12-03T01:11:47.591Z,44.27
2022-12-03T01:16:49.592Z,44.27
2022-12-03T01:21:52.652Z,44.15
2022-12-03T01:26:56.362Z,44.20
2022-12-03T01:32:17.117Z,44.32
2022-12-03T01:37:20.910Z,44.10
2022-12-03T01:42:37.456Z,44.12
2022-12-03T01:47:39.598Z,44.23
2022-12-03T01:52:42.594Z,43.85
2022-12-03T01:57:47.774Z,44.07
2022-12-03T02:02:53.135Z,43.84
2022-12-03T02:07:55.496Z,44.27
2022-12-03T02:13:17.625Z,44.22
2022-12-03T02:18:19.885Z,44.00
2022-12-03T02:23:50.900Z,44.09
2022-12-03T02:28:53.066Z,43.95
2022-12-03T02:33:55.807Z,44.07
2022-12-03T02:38:58.089Z,44.08
2022-12-03T02:44:00.178Z,44.08
2022-12-03T02:49:03.556Z,44.11
2022-12-03T02:54:05.627Z,44.09
2022-12-03T02:59:07.515Z,43.66
2022-12-03T03:04:09.564Z,43.88
2022-12-03T03:09:11.611Z,43.75
2022-12-03T03:14:13.749Z,43.89
2022-12-03T03:19:15.965Z,43.73
2022-12-03T03:24:17.908Z,44.05
2022-12-03T03:29:19.878Z,43.90
2022-12-03T03:34:22.006Z,44.08
2022-12-03T03:39:24.276Z,43.93
2022-12-03T03:44:26.108Z,43.99
2022-12-03T03:49:28.522Z,43.81
2022-12-03T03:54:30.996Z,43.76
2022-12-03T03:59:33.026Z,44.02
2022-12-03T04:04:37.023Z,43.97
2022-12-03T04:09:39.344Z,44.01
2022-12-03T04:14:41.515Z,43.83
2022-12-03T04:19:43.325Z,43.76
2022-12-03T04:24:45.651Z,43.89
2022-12-03T04:29:47.966Z,43.99
2022-12-03T04:35:08.756Z,43.75
2022-12-03T04:40:31.063Z,44.08
2022-12-03T04:45:32.980Z,43.68
2022-12-03T04:50:35.188Z,43.86
2022-12-03T04:55:37.166Z,43.33
2022-12-03T05:00:39.010Z,43.31
2022-12-03T05:05:41.797Z,43.95
2022-12-03T05:10:43.732Z,43.67
2022-12-03T05:15:45.870Z,42.81
2022-12-03T05:20:53.287Z,42.96
2022-12-03T05:25:55.992Z,43.05
2022-12-03T05:30:57.838Z,43.16
2022-12-03T05:36:00.251Z,42.82
2022-12-03T05:41:02.481Z,43.17
2022-12-03T05:46:04.495Z,43.66
2022-12-03T05:51:06.545Z,43.04
2022-12-03T05:56:08.522Z,42.61
2022-12-03T06:01:10.418Z,43.37
2022-12-03T06:06:12.173Z,43.07
2022-12-03T06:11:14.427Z,42.73
2022-12-03T06:16:16.484Z,42.49
2022-12-03T06:21:18.648Z,42.58
2022-12-03T06:26:20.581Z,42.79
2022-12-03T06:31:23.388Z,42.44
2022-12-03T06:36:27.874Z,42.58
2022-12-03T06:41:29.581Z,42.62
2022-12-03T06:46:31.628Z,43.34
2022-12-03T06:51:33.568Z,42.67
2022-12-03T06:56:40.416Z,42.36
2022-12-03T07:01:46.644Z,41.78
2022-12-03T07:06:49.024Z,41.03
2022-12-03T07:11:50.823Z,41.46
2022-12-03T07:16:52.781Z,41.34
2022-12-03T07:21:54.789Z,41.52
2022-12-03T07:26:56.695Z,42.33
2022-12-03T07:31:58.702Z,41.81
2022-12-03T07:37:00.864Z,41.64
2022-12-03T07:42:03.102Z,41.92
2022-12-03T07:47:05.397Z,41.73
2022-12-03T07:52:07.584Z,41.51
2022-12-03T07:57:09.437Z,41.59
2022-12-03T08:02:11.442Z,41.80
2022-12-03T08:07:13.450Z,41.69
2022-12-03T08:12:18.236Z,42.06
2022-12-03T08:17:21.930Z,41.34
2022-12-03T08:22:23.712Z,41.57
2022-12-03T08:27:25.498Z,40.64
2022-12-03T08:32:27.801Z,42.29
2022-12-03T08:37:30.221Z,43.51
2022-12-03T08:42:42.957Z,44.13
2022-12-03T08:47:44.712Z,44.80
2022-12-03T08:52:46.607Z,44.98
2022-12-03T08:57:48.396Z,45.51
2022-12-03T09:02:52.590Z,45.64
2022-12-03T09:07:54.618Z,46.02
2022-12-03T09:12:56.865Z,46.45
2022-12-03T09:17:58.947Z,46.88
2022-12-03T09:23:00.785Z,46.58
2022-12-03T09:28:02.983Z,46.95
2022-12-03T09:33:04.786Z,47.37
2022-12-03T09:38:06.914Z,47.15
2022-12-03T09:43:09.036Z,47.02
2022-12-03T09:48:12.715Z,47.23
2022-12-03T09:53:21.047Z,47.68
2022-12-03T09:58:39.314Z,47.86
2022-12-03T10:03:49.478Z,47.95
2022-12-03T10:08:54.731Z,48.42
2022-12-03T10:13:58.616Z,48.59
2022-12-03T10:19:01.777Z,48.08
2022-12-03T10:24:23.986Z,48.51
2022-12-03T10:29:33.630Z,44.98
2022-12-03T10:34:39.201Z,43.22
2022-12-03T10:40:09.498Z,41.90
2022-12-03T10:45:24.654Z,41.56
2022-12-03T10:50:26.625Z,41.09
2022-12-03T10:55:34.347Z,41.00
2022-12-03T11:00:36.111Z,40.78
2022-12-03T11:05:38.040Z,40.42
2022-12-03T11:10:39.851Z,40.49
2022-12-03T11:15:44.420Z,40.77
2022-12-03T11:20:46.312Z,40.97
2022-12-03T11:25:50.840Z,40.83
2022-12-03T11:30:56.755Z,40.59
2022-12-03T11:36:04.928Z,40.91
2022-12-03T11:41:19.184Z,40.41
2022-12-03T11:46:27.724Z,41.08
2022-12-03T11:51:30.516Z,40.65
2022-12-03T11:56:32.674Z,40.92
2022-12-03T12:01:39.194Z,41.01
2022-12-03T12:06:43.597Z,41.08
2022-12-03T12:11:45.686Z,41.33
2022-12-03T12:16:51.929Z,41.41
2022-12-03T12:21:54.310Z,42.84
2022-12-03T12:26:57.935Z,42.06
2022-12-03T12:32:09.090Z,42.85
2022-12-03T12:37:14.082Z,43.71
2022-12-03T12:42:33.117Z,45.57
2022-12-03T12:47:38.481Z,44.88
2022-12-03T12:52:56.008Z,44.11
2022-12-03T12:58:03.484Z,44.91
2022-12-03T13:03:07.223Z,44.46
2022-12-03T13:08:23.127Z,44.01
2022-12-03T13:13:43.904Z,43.84
2022-12-03T13:18:49.025Z,43.14
2022-12-03T13:23:54.076Z,43.19
2022-12-03T13:28:58.070Z,42.63
2022-12-03T13:34:10.735Z,42.24
2022-12-03T13:39:31.824Z,41.97
2022-12-03T13:44:34.494Z,41.97
2022-12-03T13:49:36.790Z,42.07
2022-12-03T13:54:39.564Z,42.03
2022-12-03T13:59:41.398Z,41.78
2022-12-03T14:04:43.288Z,41.85
2022-12-03T14:09:45.123Z,41.94
2022-12-03T14:14:46.939Z,42.01
2022-12-03T14:19:48.943Z,41.45
2022-12-03T14:24:53.210Z,41.42
2022-12-03T14:29:55.340Z,41.70
2022-12-03T14:34:57.265Z,41.51
2022-12-03T14:39:59.265Z,41.54
2022-12-03T14:45:01.268Z,41.72
2022-12-03T14:50:05.452Z,41.88
2022-12-03T14:55:07.877Z,41.55
2022-12-03T15:00:10.430Z,41.67
2022-12-03T15:05:12.218Z,41.03
2022-12-03T15:10:14.074Z,41.63
2022-12-03T15:15:16.186Z,41.65
2022-12-03T15:20:18.541Z,41.38
2022-12-03T15:25:27.614Z,41.08
2022-12-03T15:30:29.777Z,40.55
2022-12-03T15:35:31.828Z,40.79
2022-12-03T15:40:33.633Z,41.00
2022-12-03T15:45:35.707Z,40.80
2022-12-03T15:50:40.258Z,41.24
2022-12-03T15:55:42.441Z,40.73
2022-12-03T16:00:45.562Z,41.25
2022-12-03T16:05:47.363Z,41.28
2022-12-03T16:10:49.644Z,40.84
2022-12-03T16:15:51.807Z,41.24
2022-12-03T16:20:53.878Z,40.84
2022-12-03T16:25:56.025Z,40.76
2022-12-03T16:30:57.981Z,40.90
2022-12-03T16:36:00.064Z,40.65
2022-12-03T16:41:02.504Z,40.78
2022-12-03T16:46:17.523Z,40.50
2022-12-03T16:51:19.975Z,40.44
2022-12-03T16:56:22.238Z,40.40
2022-12-03T17:01:24.387Z,40.44
2022-12-03T17:06:26.449Z,40.49
2022-12-03T17:11:28.731Z,40.49
2022-12-03T17:16:30.888Z,40.43
2022-12-03T17:21:35.011Z,40.53
2022-12-03T17:26:37.414Z,40.45
2022-12-03T17:31:42.222Z,40.09
2022-12-03T17:36:44.872Z,40.47
2022-12-03T17:41:47.219Z,40.22
2022-12-03T17:46:49.243Z,40.34
2022-12-03T17:51:51.454Z,40.00
2022-12-03T17:56:53.489Z,40.03
2022-12-03T18:01:55.486Z,40.11
2022-12-03T18:07:00.822Z,40.11
2022-12-03T18:12:04.936Z,40.37
2022-12-03T18:17:07.326Z,40.54
2022-12-03T18:22:09.544Z,40.27
2022-12-03T18:27:11.593Z,40.16
2022-12-03T18:32:27.729Z,40.10
2022-12-03T18:37:32.060Z,40.06
2022-12-03T18:42:34.124Z,40.38
2022-12-03T18:47:36.068Z,40.12
2022-12-03T18:52:38.676Z,40.02
2022-12-03T18:57:40.790Z,39.86
2022-12-03T19:08:12.763Z,40.22
2022-12-03T19:13:14.888Z,40.02
2022-12-03T19:18:17.370Z,40.32
2022-12-03T19:23:19.552Z,40.09
2022-12-03T19:28:21.710Z,40.06
2022-12-03T19:33:28.330Z,40.09
2022-12-03T19:38:31.786Z,39.91
2022-12-03T19:43:35.393Z,40.27
2022-12-03T19:48:39.272Z,40.14
2022-12-03T19:53:42.219Z,39.94
2022-12-03T19:58:46.300Z,39.96
2022-12-03T20:03:50.230Z,39.98
2022-12-03T20:08:58.735Z,39.95
2022-12-03T20:14:03.074Z,39.84
2022-12-03T20:19:07.507Z,39.97
2022-12-03T20:24:14.768Z,39.82
2022-12-03T20:29:16.756Z,39.90
2022-12-03T20:34:18.924Z,39.94
2022-12-03T20:39:20.899Z,40.07
2022-12-03T20:44:23.027Z,39.78
2022-12-03T20:49:25.239Z,39.79
2022-12-03T20:54:27.577Z,39.95
2022-12-03T20:59:29.363Z,39.65
2022-12-03T21:04:31.612Z,39.53
2022-12-03T21:09:33.476Z,39.89
2022-12-03T21:14:36.262Z,39.86
2022-12-03T21:19:38.878Z,39.83
2022-12-03T21:24:43.061Z,39.58
2022-12-03T21:29:44.876Z,39.58
2022-12-03T21:34:46.713Z,39.59
2022-12-03T21:39:48.694Z,39.81
2022-12-03T21:44:50.678Z,39.08
2022-12-03T21:49:52.793Z,39.93
2022-12-03T21:54:55.300Z,38.51
2022-12-03T21:59:57.717Z,39.26
2022-12-03T22:04:59.906Z,39.29
2022-12-03T22:10:02.136Z,39.21
2022-12-03T22:15:04.500Z,39.44
2022-12-03T22:20:07.317Z,39.24
2022-12-03T22:25:09.716Z,39.36
2022-12-03T22:30:11.847Z,39.43
2022-12-03T22:35:13.998Z,39.50
2022-12-03T22:40:16.153Z,39.47
2022-12-03T22:45:17.968Z,39.87
2022-12-03T22:50:19.860Z,39.84
2022-12-03T22:55:21.681Z,39.84
2022-12-03T23:00:33.414Z,39.65
2022-12-03T23:05:39.188Z,40.04
2022-12-03T23:10:44.131Z,39.80
2022-12-03T23:15:51.644Z,40.00
2022-12-03T23:20:55.519Z,39.83
2022-12-03T23:26:08.443Z,39.98
2022-12-03T23:31:23.845Z,40.09
2022-12-03T23:36:27.760Z,39.77
2022-12-03T23:41:29.934Z,40.06
2022-12-03T23:46:31.978Z,40.06
2022-12-03T23:51:34.126Z,40.08
2022-12-03T23:56:35.991Z,39.91
